createdAt,value
2023-09-23T00:00:02.394Z,1.1
2023-09-23T00:05:02.043Z,1.4
2023-09-23T00:10:01.657Z,0.7
2023-09-23T00:15:01.319Z,1.2
2023-09-23T00:20:00.956Z,0.6
2023-09-23T00:25:00.528Z,0.7
2023-09-23T00:30:00.197Z,0.8
2023-09-23T00:34:59.813Z,1.3
2023-09-23T00:39:59.330Z,0.9
2023-09-23T00:44:58.936Z,0.8
2023-09-23T00:59:57.812Z,1.0
2023-09-23T01:04:57.485Z,0.7
2023-09-23T01:09:57.092Z,0.6
2023-09-23T01:14:56.741Z,1.3
2023-09-23T01:19:56.451Z,1.2
2023-09-23T01:29:55.767Z,0.5
2023-09-23T01:34:55.325Z,0.6
2023-09-23T01:44:54.574Z,0.8
2023-09-23T01:49:56.205Z,1.0
2023-09-23T01:54:53.778Z,0.6
2023-09-23T01:59:53.300Z,0.9
2023-09-23T02:19:51.583Z,0.6
2023-09-23T02:34:50.326Z,0.7
2023-09-23T02:39:49.831Z,1.0
2023-09-23T02:44:49.421Z,0.9
2023-09-23T02:49:48.965Z,0.7
2023-09-23T02:54:48.504Z,0.6
2023-09-23T03:04:47.702Z,0.8
2023-09-23T03:09:49.229Z,0.7
2023-09-23T03:14:46.880Z,1.1
2023-09-23T03:19:46.403Z,0.8
2023-09-23T03:24:45.928Z,0.7
2023-09-23T03:29:45.508Z,0.5
2023-09-23T03:34:45.090Z,0.9
2023-09-23T03:39:44.632Z,0.6
2023-09-23T03:44:44.228Z,0.8
2023-09-23T03:49:43.830Z,0.7
2023-09-23T03:54:43.350Z,0.9
2023-09-23T03:59:42.979Z,0.4
2023-09-23T04:04:42.576Z,0.8
2023-09-23T04:09:42.056Z,0.6
2023-09-23T04:19:41.158Z,0.5
2023-09-23T04:24:40.656Z,0.7
2023-09-23T04:29:40.198Z,1.0
2023-09-23T04:34:39.756Z,0.8
2023-09-23T04:39:39.330Z,0.7
2023-09-23T04:54:37.994Z,0.8
2023-09-23T05:04:37.226Z,0.7
2023-09-23T05:09:40.678Z,2.6
2023-09-23T05:14:36.215Z,0.9
2023-09-23T05:19:37.804Z,1.0
2023-09-23T05:24:35.408Z,0.5
2023-09-23T05:29:35.034Z,0.6
2023-09-23T05:34:34.628Z,0.9
2023-09-23T05:39:34.157Z,0.7
2023-09-23T05:44:33.765Z,0.8
2023-09-23T05:49:33.322Z,0.9
2023-09-23T05:59:32.573Z,0.8
2023-09-23T06:14:33.800Z,0.9
2023-09-23T06:19:30.844Z,1.1
2023-09-23T06:24:32.465Z,0.7
2023-09-23T06:29:30.084Z,1.0
2023-09-23T06:34:29.627Z,0.7
2023-09-23T06:39:29.162Z,1.0
2023-09-23T06:44:31.239Z,0.7
2023-09-23T06:49:28.330Z,0.6
2023-09-23T06:54:29.963Z,0.7
2023-09-23T06:59:27.531Z,0.8
2023-09-23T07:04:27.111Z,0.9
2023-09-23T07:09:26.686Z,0.8
2023-09-23T07:14:26.419Z,0.4
2023-09-23T07:19:25.893Z,1.0
2023-09-23T07:24:25.564Z,1.3
2023-09-23T07:29:25.204Z,1.1
2023-09-23T07:34:24.725Z,0.6
2023-09-23T07:44:24.040Z,0.8
2023-09-23T07:59:23.066Z,0.6
2023-09-23T08:04:22.698Z,0.9
2023-09-23T08:09:22.365Z,0.7
2023-09-23T08:14:22.157Z,2.1
2023-09-23T08:19:21.907Z,0.8
2023-09-23T08:24:21.451Z,1.0
2023-09-23T08:34:23.419Z,0.9
2023-09-23T08:44:20.505Z,0.8
2023-09-23T08:49:20.292Z,0.7
2023-09-23T08:54:20.130Z,0.9
2023-09-23T08:59:19.989Z,0.8
2023-09-23T09:09:19.815Z,0.7
2023-09-23T09:14:19.632Z,1.3
2023-09-23T09:19:19.497Z,1.1
2023-09-23T09:24:19.394Z,1.0
2023-09-23T09:29:19.430Z,0.7
2023-09-23T09:34:21.279Z,0.9
2023-09-23T09:49:19.145Z,1.1
2023-09-23T09:59:19.136Z,5.4
2023-09-23T10:04:19.104Z,1.0
2023-09-23T10:09:19.132Z,1.3
2023-09-23T10:14:19.136Z,1.2
2023-09-23T10:19:19.222Z,1.1
2023-09-23T10:24:19.147Z,1.0
2023-09-23T10:29:19.136Z,1.4
2023-09-23T10:34:19.262Z,1.0
2023-09-23T10:39:19.138Z,0.8
2023-09-23T10:54:19.222Z,1.0
2023-09-23T11:04:22.034Z,1.1
2023-09-23T11:09:19.389Z,1.8
2023-09-23T11:14:19.521Z,1.0
2023-09-23T11:19:19.540Z,1.3
2023-09-23T11:29:19.770Z,1.1
2023-09-23T11:34:19.861Z,1.0
2023-09-23T11:39:20.004Z,1.2
2023-09-23T11:44:22.738Z,1.0
2023-09-23T11:54:20.503Z,1.4
2023-09-23T11:59:20.673Z,0.8
2023-09-23T12:04:20.835Z,1.2
2023-09-23T12:14:21.392Z,0.8
2023-09-23T12:19:21.622Z,1.5
2023-09-23T12:24:21.939Z,1.0
2023-09-23T12:29:22.256Z,1.3
2023-09-23T12:39:22.865Z,1.2
2023-09-23T12:44:23.272Z,1.0
2023-09-23T12:49:27.424Z,1.2
2023-09-23T12:59:23.906Z,0.9
2023-09-23T13:09:24.258Z,1.2
2023-09-23T13:14:24.542Z,1.0
2023-09-23T13:24:24.801Z,1.2
2023-09-23T13:29:24.964Z,1.5
2023-09-23T13:34:25.134Z,1.1
2023-09-23T13:44:25.679Z,0.9
2023-09-23T13:49:25.684Z,1.0
2023-09-23T13:54:26.058Z,0.9
2023-09-23T13:59:28.903Z,1.2
2023-09-23T14:04:26.622Z,1.0
2023-09-23T14:09:26.857Z,1.4
2023-09-23T14:14:27.108Z,1.1
2023-09-23T14:19:27.260Z,1.0
2023-09-23T14:24:29.107Z,0.9
2023-09-23T14:29:27.738Z,1.0
2023-09-23T14:34:29.768Z,1.1
2023-09-23T14:44:28.047Z,1.0
2023-09-23T14:49:28.122Z,1.6
2023-09-23T14:54:28.197Z,1.1
2023-09-23T14:59:28.343Z,1.2
2023-09-23T15:09:28.518Z,1.0
2023-09-23T15:14:30.668Z,0.7
2023-09-23T15:19:28.744Z,1.0
2023-09-23T15:24:30.897Z,0.9
2023-09-23T15:29:29.065Z,1.2
2023-09-23T15:34:29.157Z,1.0
2023-09-23T15:44:29.494Z,0.8
2023-09-23T15:49:29.446Z,1.3
2023-09-23T15:54:29.537Z,1.0
2023-09-23T15:59:29.682Z,1.3
2023-09-23T16:04:29.721Z,1.1
2023-09-23T16:14:29.741Z,1.6
2023-09-23T16:19:29.680Z,1.4
2023-09-23T16:24:29.710Z,0.9
2023-09-23T16:29:29.837Z,0.7
2023-09-23T16:34:29.762Z,1.1
2023-09-23T16:44:31.875Z,0.9
2023-09-23T16:49:31.766Z,1.1
2023-09-23T16:54:33.747Z,1.5
2023-09-23T16:59:29.723Z,1.4
2023-09-23T17:04:29.619Z,1.6
2023-09-23T17:09:31.652Z,1.5
2023-09-23T17:14:29.657Z,1.4
2023-09-23T17:24:29.484Z,1.8
2023-09-23T17:29:29.480Z,1.6
2023-09-23T17:34:29.364Z,1.3
2023-09-23T17:39:29.291Z,1.1
2023-09-23T17:44:31.736Z,1.4
2023-09-23T17:49:29.108Z,1.1
2023-09-23T17:54:29.065Z,1.2
2023-09-23T17:59:29.017Z,1.5
2023-09-23T18:14:28.762Z,1.4
2023-09-23T18:19:28.512Z,1.2
2023-09-23T18:24:28.466Z,1.8
2023-09-23T18:29:30.781Z,1.4
2023-09-23T18:34:28.215Z,1.6
2023-09-23T18:44:27.804Z,0.9
2023-09-23T18:49:27.646Z,7.4
2023-09-23T18:54:27.485Z,74.4
2023-09-23T18:59:27.307Z,70.5
2023-09-23T19:04:27.153Z,68.4
2023-09-23T19:09:26.971Z,55.6
2023-09-23T19:14:26.819Z,42.4
2023-09-23T19:19:26.704Z,36.4
2023-09-23T19:24:26.468Z,49.7
2023-09-23T19:29:26.357Z,24.3
2023-09-23T19:34:26.318Z,21.3
2023-09-23T19:39:25.984Z,16.1
2023-09-23T19:44:25.981Z,14.5
2023-09-23T19:49:25.694Z,9.0
2023-09-23T19:54:25.564Z,6.1
2023-09-23T19:59:25.331Z,7.1
2023-09-23T20:04:25.146Z,5.4
2023-09-23T20:09:24.986Z,9.0
2023-09-23T20:14:24.834Z,6.7
2023-09-23T20:19:24.562Z,3.2
2023-09-23T20:24:24.412Z,3.1
2023-09-23T20:29:24.154Z,4.9
2023-09-23T20:34:24.011Z,3.3
2023-09-23T20:39:23.788Z,2.0
2023-09-23T20:44:23.639Z,1.9
2023-09-23T20:49:23.364Z,1.5
2023-09-23T20:54:25.206Z,2.5
2023-09-23T20:59:23.079Z,1.5
2023-09-23T21:09:26.618Z,1.8
2023-09-23T21:14:22.482Z,1.3
2023-09-23T21:19:22.334Z,1.6
2023-09-23T21:24:22.119Z,1.9
2023-09-23T21:29:24.658Z,1.7
2023-09-23T21:34:21.735Z,1.4
2023-09-23T21:39:23.504Z,1.2
2023-09-23T21:44:21.378Z,1.3
2023-09-23T21:49:23.616Z,1.7
2023-09-23T21:54:20.907Z,1.3
2023-09-23T21:59:22.872Z,1.4
2023-09-23T22:04:20.589Z,1.2
2023-09-23T22:09:20.225Z,1.5
2023-09-23T22:14:20.048Z,1.0
2023-09-23T22:19:19.772Z,1.5
2023-09-23T22:24:19.572Z,1.2
2023-09-23T22:29:19.429Z,1.3
2023-09-23T22:39:19.101Z,1.4
2023-09-23T22:44:18.936Z,1.8
2023-09-23T22:49:18.841Z,1.3
2023-09-23T22:54:18.566Z,1.1
2023-09-23T22:59:18.370Z,1.2
2023-09-23T23:04:18.231Z,1.1
2023-09-23T23:09:18.010Z,1.4
2023-09-23T23:14:17.944Z,0.8
2023-09-23T23:19:17.741Z,1.4
2023-09-23T23:24:17.641Z,1.6
2023-09-23T23:29:17.485Z,1.3
2023-09-23T23:39:17.145Z,1.0
2023-09-23T23:44:16.965Z,3.0
2023-09-23T23:49:16.828Z,1.9
2023-09-23T23:54:16.693Z,1.7
2023-09-23T23:59:16.454Z,1.9
